Star Alliance - MUCC Airport Info

    MUCC (Jardines Del Rey Airport)  Login to use Map Selector

  ALLIANCE AIRCRAFT AT THIS AIRPORT
Tail Number Aircraft ModelFlightsRunwayRangeCapacityPaxSale
N-375NKLet L 410 UVP-T 01500ft553nm2573Kg4Yes
  RUNWAY INFORMATION    |    Airport Elevation : 13ft    |    LAT : 22.4610004425  /  LON : -78.3283996582
Runway Number 08 / 26 Runway Width 148' Runway Length 9842'
Lighted Runway Yes Runway StatusOpen Runway Surface Asphalt
  CLOSE ALTERNATE AIRPORTS
ICAODistanceAirport NameLongest RWRW SurfaceMAP
MUOC11NMCayo Coco Airport5250FTConcrete
MUCA36NMMaximo Gomez Airport11591FTAsphalt
MUBR46NMLas Brujas Airport5915FTAsphalt
MUFL58NMFlorida Airport3247FTAsphalt
MUCB63NMCaibarién Airport3269FTAsphalt
MUCM68NMIgnacio Agramonte International Airport9842FTAsphalt
MUSS68NMSancti Spiritus Airport5908FTAsphalt
MUSC90NMAbel Santamaria Airport9898FTAsphalt
MUSL93NMRoberto Yaguero5905FTAsphalt
MUTD101NMAlberto Delgado Airport5909FTAsphalt
  AIRPORT WEATHER
84°F | 29°C
Temperature
74%
Humidity
30" | 0mb
Pressure
6sm
Visibility
VFR
Flight Rules
SCT @ 2000ft
Initial Clouds
FAIR
Conditions
Wind Info
11/27/22 17:50Z
Updated

MUCC 271750Z 08006KT 030V110 9000 SCT020 29/24 Q1016
  AIRPORT FREQUENCIES
NameFrequency
GROUND121.500
TOWER118.800
APPROACH118.800
DEPARTURE118.800
ICJ (RWY 8)109.900
  PILOT ENTERED AIRPORT INFORMATION SEE ALL PILOT ENTERED AIRPORT INFO

Powered by Virtual Airlines Manager